• Join FlightAware (Why Join?)
  • Login
  • US Flag 
12:35AM EDT


 

Airport Tracker/Info


-or-


 

Live Flight TrackerFlight Track Log ✈ GPD20 ✈ 26-Aug-2013 ✈ KOXC - KMVY

Flight Track Log - Related Links

Times and Time Zones

All times are in EDT time to prevent confusion due to time zone crossing. See the GPD20 flight status page for this flight to view local times or setup timezone preferences in your user account.

Time Position Orientation Groundspeed Altitude Reporting Facility
EDT Latitude Longitude Course Direction KTS MPH feet Rate Location/Type
04:23AM 41.4500 -72.9167 120° Southeast 157 181 4,100  Level New York TRACON
04:24AM 41.4333 -72.8500 108° East 165 190 4,800 660 Climbing New York TRACON
04:25AM 41.4333 -72.8000 90° East 163 188 5,500 420 Climbing New York TRACON
04:26AM 41.4333 -72.7333 90° East 178 205 5,700  Climbing New York TRACON
04:27AM 41.3835 -72.8842 108° East  Level FlightAware Approximate
04:27AM 41.4292 -72.6450 94° East 181 208 5,500  Level Boston Center
04:28AM 41.3634 -72.8367 120° Southeast  Level FlightAware Approximate
04:28AM 41.4250 -72.5786 95° East 181 208 5,500  Level Boston Center
04:29AM 41.4272 -72.5092 88° East 181 208 5,500  Level Boston Center
04:30AM 41.4231 -72.4400 95° East 181 208 5,500  Level Boston Center
04:31AM 41.4231 -72.3708 90° East 181 208 5,500  Level Boston Center
04:32AM 41.4228 -72.3044 90° East 181 208 5,600  Climbing Boston Center
04:33AM 41.4250 -72.2408 87° East 184 212 5,500 -60 Descending Boston Center
04:34AM 41.4225 -72.1633 92° East 184 212 5,500  Level Boston Center
04:35AM 41.4244 -72.1050 87° East 179 206 5,500  Level Boston Center
04:36AM 41.4222 -72.0331 92° East 174 200 5,500  Level Boston Center
04:37AM 41.4219 -71.9694 90° East 180 207 5,500  Level Boston Center
04:38AM 41.4217 -71.9003 90° East 180 207 5,500  Level Boston Center
04:39AM 41.4233 -71.8394 88° East 175 201 5,600  Climbing Boston Center
04:40AM 41.4231 -71.7675 90° East 180 207 5,500 -60 Descending Boston Center
04:41AM 41.4247 -71.7064 88° East 175 201 5,500  Level Boston Center
04:42AM 41.4242 -71.6317 91° East 175 201 5,500  Level Boston Center
04:43AM 41.4239 -71.5736 90° East 181 208 5,500  Level Boston Center
04:44AM 41.4192 -71.5017 95° East 174 200 5,500  Level Boston Center
04:45AM 41.4186 -71.4408 91° East 179 206 5,500  Level Boston Center
04:46AM 41.4158 -71.3661 93° East 179 206 5,500  Level Boston Center
04:47AM 41.4153 -71.3081 91° East 179 206 5,500  Level Boston Center
04:48AM 41.4122 -71.2333 93° East 179 206 5,500 -60 Level Boston Center
04:49AM 41.4097 -71.1725 93° East 179 206 5,400 -300 Descending Boston Center
04:50AM 41.4067 -71.0950 93° East 179 206 5,000 -600 Descending Boston Center
04:51AM 41.4058 -71.0231 91° East 186 214 4,300 -600 Descending Boston Center
04:52AM 41.4047 -70.9483 91° East 191 220 3,800 -600 Descending Boston Center
04:53AM 41.4078 -70.8736 87° East 196 226 3,200 -600 Descending Boston Center
04:55AM 41.4100 -70.7768 102° East  Level FlightAware Approximate
05:02AM 41.3934 -70.6139 101° East  Level Estimated
05:03AM 41.3934 -70.6139 101° East  Level Estimated
05:04AM 41.3934 -70.6139 101° East  Level Estimated
05:05AM 41.3934 -70.6139 101° East  Level Estimated
05:06AM 41.3934 -70.6139 101° East  Level Estimated
05:07AM 41.3934 -70.6139 101° East  Level Estimated
05:08AM 41.3934 -70.6139 101° East  Level Estimated
05:09AM 41.3934 -70.6139 101° East  Level Estimated
05:10AM 41.3934 -70.6139 101° East  Level Estimated
05:11AM 41.3934 -70.6139 101° East  Level Estimated